Time;durP1;ratioP1;P1;durP2;ratioP2;P2;SDS_P1;SDS_P2;PMS_P1;PMS_P2;Temp;Humidity;BMP_temperature;BMP_pressure;BME280_temperature;BME280_humidity;BME280_pressure;Samples;Min_cycle;Max_cycle;Signal;HPM_P1;HPM_P2
2024/04/24 00:00:43;;;;;;;0.10;0.10;;;;;;;6.22;66.89;100814.53;6429352;22;20010;-79
2024/04/24 00:03:40;;;;;;;0.00;0.00;;;;;;;6.50;66.92;100857.44;6379421;22;20073;-79
2024/04/24 00:06:09;;;;;;;0.10;0.10;;;;;;;6.29;67.02;100818.84;6422812;22;20009;-80
2024/04/24 00:08:37;;;;;;;0.00;0.00;;;;;;;6.08;67.21;100779.38;6381972;22;20001;-79
2024/04/24 00:11:03;;;;;;;0.10;0.10;;;;;;;6.26;67.25;100802.16;6385028;22;20003;-77
2024/04/24 00:13:34;;;;;;;0.00;0.00;;;;;;;6.34;67.44;100812.72;6383437;22;20418;-81
2024/04/24 00:16:10;;;;;;;0.00;0.00;;;;;;;6.44;67.61;100826.59;6385477;22;20291;-78
2024/04/24 00:18:53;;;;;;;0.00;0.00;;;;;;;6.56;67.77;100840.22;6384287;22;19998;-80
2024/04/24 00:21:21;;;;;;;0.00;0.00;;;;;;;6.31;67.83;100777.88;6383949;22;20032;-78
2024/04/24 00:23:47;;;;;;;0.00;0.00;;;;;;;6.34;67.54;100782.84;6381132;22;19998;-78
2024/04/24 00:26:19;;;;;;;0.00;0.00;;;;;;;6.47;67.33;100798.97;6303431;22;20045;-79
2024/04/24 00:28:45;;;;;;;0.00;0.00;;;;;;;6.44;67.58;100783.13;6346717;22;20069;-78
2024/04/24 00:31:14;;;;;;;0.00;0.00;;;;;;;6.44;67.48;100794.00;6385492;22;20010;-79
2024/04/24 00:33:50;;;;;;;;;;;;;;;;;;;;;
2024/04/24 00:36:15;;;;;;;0.00;0.00;;;;;;;6.50;67.46;100808.53;6388057;22;20002;-80
2024/04/24 00:38:41;;;;;;;0.00;0.00;;;;;;;6.25;67.98;100767.91;6383330;22;19998;-79
2024/04/24 00:41:19;;;;;;;0.00;0.00;;;;;;;6.22;68.66;100762.94;6425200;22;20010;-78
2024/04/24 00:43:52;;;;;;;0.10;0.10;;;;;;;6.13;69.08;100754.25;6385689;22;19998;-78
2024/04/24 00:46:30;;;;;;;;;;;;;;;;;;;;;
2024/04/24 00:49:24;;;;;;;0.00;0.00;;;;;;;6.17;70.16;100784.53;6426179;22;20119;-78
2024/04/24 00:51:50;;;;;;;0.00;0.00;;;;;;;5.95;70.53;100752.38;6379996;22;20009;-79
2024/04/24 00:54:25;;;;;;;0.00;0.00;;;;;;;5.86;70.53;100746.41;6384469;22;19998;-80
2024/04/24 00:57:07;;;;;;;;;;;;;;;;;;;;;
2024/04/24 00:59:33;;;;;;;0.10;0.10;;;;;;;5.66;70.99;100716.78;6390963;22;20002;-77
2024/04/24 01:01:59;;;;;;;0.00;0.00;;;;;;;5.88;71.29;100757.88;6380274;22;19995;-77
2024/04/24 01:04:24;;;;;;;0.03;0.03;;;;;;;5.53;72.28;100725.09;6429322;22;20010;-79
2024/04/24 01:06:49;;;;;;;0.10;0.10;;;;;;;5.25;72.94;100696.59;6385807;22;19999;-81
2024/04/24 01:09:15;;;;;;;0.00;0.00;;;;;;;5.55;73.35;100763.69;6385819;22;20009;-78
2024/04/24 01:11:40;;;;;;;0.00;0.00;;;;;;;5.33;73.50;100755.97;6340464;22;20003;-80
2024/04/24 01:14:06;;;;;;;0.00;0.00;;;;;;;5.11;73.96;100751.97;6300958;22;19999;-80
2024/04/24 01:16:36;;;;;;;0.00;0.00;;;;;;;4.81;74.27;100730.97;6301401;22;20047;-79
2024/04/24 01:19:07;;;;;;;0.00;0.00;;;;;;;4.71;74.55;100737.69;6381930;22;20007;-78
2024/04/24 01:22:35;;;;;;;;;;;;;;;;;;;;;
2024/04/24 01:25:34;;;;;;;0.00;0.00;;;;;;;4.61;75.05;100759.00;6391421;22;20022;-79
2024/04/24 01:28:00;;;;;;;0.00;0.00;;;;;;;4.21;75.25;100704.28;6378014;22;19994;-79
2024/04/24 01:30:26;;;;;;;0.00;0.00;;;;;;;4.33;75.56;100733.13;6383017;22;19995;-77
2024/04/24 01:32:51;;;;;;;0.00;0.00;;;;;;;4.22;75.49;100728.44;6341917;22;19998;-77
2024/04/24 01:35:16;;;;;;;0.00;0.00;;;;;;;4.21;75.89;100736.78;6384075;22;20010;-80
2024/04/24 01:37:42;;;;;;;0.00;0.00;;;;;;;3.88;75.98;100697.16;6424808;22;19995;-79
2024/04/24 01:40:18;;;;;;;;;;;;;;;;;;;;;
2024/04/24 01:42:46;;;;;;;0.00;0.00;;;;;;;4.05;76.46;100738.09;6425675;22;20002;-79
2024/04/24 01:45:12;;;;;;;0.00;0.00;;;;;;;3.92;76.65;100725.44;6385947;22;19998;-77
2024/04/24 01:47:37;;;;;;;0.00;0.00;;;;;;;3.99;76.91;100740.59;6381121;22;20013;-77
2024/04/24 01:50:03;;;;;;;0.00;0.00;;;;;;;3.77;77.17;100704.06;6428996;22;20013;-77
2024/04/24 01:52:31;;;;;;;0.00;0.00;;;;;;;3.86;77.07;100713.59;6381392;22;20030;-77
2024/04/24 01:55:07;;;;;;;0.00;0.00;;;;;;;3.95;77.24;100723.13;6423383;22;20074;-77
2024/04/24 01:57:35;;;;;;;0.00;0.00;;;;;;;3.98;77.06;100717.28;6422020;22;20031;-76
2024/04/24 02:00:00;;;;;;;0.00;0.00;;;;;;;4.07;77.28;100714.34;6376439;22;20014;-77
2024/04/24 02:02:28;;;;;;;0.00;0.00;;;;;;;4.18;76.96;100716.38;6343395;22;20070;-78
2024/04/24 02:05:43;;;;;;;;;;;;;;;;;;;;;
2024/04/24 02:08:12;;;;;;;0.10;0.10;;;;;;;4.27;77.18;100715.06;6391901;22;20092;-77
2024/04/24 02:10:40;;;;;;;0.00;0.00;;;;;;;4.46;76.73;100740.34;6383036;22;20003;-78
2024/04/24 02:13:15;;;;;;;;;;;;;;;;;;;;;
2024/04/24 02:15:41;;;;;;;0.00;0.00;;;;;;;4.69;76.72;100738.97;6390257;22;20011;-78
2024/04/24 02:18:07;;;;;;;0.00;0.00;;;;;;;4.80;76.40;100746.38;6302646;22;20411;-77
2024/04/24 02:20:36;;;;;;;0.00;0.00;;;;;;;4.76;76.25;100728.06;6381943;22;20384;-78
2024/04/24 02:23:05;;;;;;;0.00;0.00;;;;;;;4.86;76.16;100728.41;6343983;22;20013;-78
2024/04/24 02:25:34;;;;;;;0.00;0.00;;;;;;;4.69;76.23;100701.88;6343369;22;20011;-78
2024/04/24 02:28:06;;;;;;;0.00;0.00;;;;;;;4.81;76.29;100717.41;6383593;22;20002;-77
2024/04/24 02:30:34;;;;;;;0.00;0.00;;;;;;;4.82;76.33;100722.63;6380115;22;20049;-78
2024/04/24 02:33:10;;;;;;;0.00;0.00;;;;;;;4.94;76.67;100747.13;6385406;22;20374;-77
2024/04/24 02:35:35;;;;;;;0.00;0.00;;;;;;;4.51;76.94;100688.25;6343023;22;19998;-81
2024/04/24 02:38:00;;;;;;;0.00;0.00;;;;;;;4.64;77.29;100709.81;6430471;22;20002;-78
2024/04/24 02:40:26;;;;;;;0.00;0.00;;;;;;;4.56;77.71;100696.56;6384524;22;19998;-78
2024/04/24 02:42:54;;;;;;;0.00;0.00;;;;;;;4.59;77.65;100689.88;6344667;22;19994;-78
2024/04/24 02:45:31;;;;;;;0.00;0.00;;;;;;;4.80;77.65;100713.84;6385727;22;20054;-79
2024/04/24 02:47:59;;;;;;;0.00;0.00;;;;;;;4.45;77.40;100660.16;6310818;22;20011;-78
2024/04/24 02:50:25;;;;;;;0.00;0.00;;;;;;;4.58;77.60;100678.19;6386072;22;20010;-80
2024/04/24 02:52:51;;;;;;;0.00;0.00;;;;;;;4.65;77.69;100688.97;6387223;22;19998;-79
2024/04/24 02:55:26;;;;;;;;;;;;;;;;;;;;;
2024/04/24 02:57:52;;;;;;;0.00;0.00;;;;;;;4.60;77.23;100648.16;6428655;22;19999;-78
2024/04/24 03:00:17;;;;;;;0.00;0.00;;;;;;;5.01;77.39;100715.38;6388721;22;20012;-78
2024/04/24 03:02:43;;;;;;;0.00;0.00;;;;;;;4.89;77.25;100692.72;6391231;22;20026;-77
2024/04/24 03:05:08;;;;;;;0.00;0.00;;;;;;;4.83;77.42;100693.63;6393320;22;20002;-80
2024/04/24 03:07:36;;;;;;;0.00;0.00;;;;;;;4.82;77.29;100695.50;6396788;22;20300;-79
2024/04/24 03:10:03;;;;;;;0.00;0.00;;;;;;;4.83;77.44;100696.34;6346696;22;20002;-78
2024/04/24 03:12:29;;;;;;;0.00;0.00;;;;;;;4.90;77.72;100702.53;6312002;22;19998;-78
2024/04/24 03:14:54;;;;;;;0.08;0.08;;;;;;;4.90;77.48;100697.13;6347201;22;20021;-77
2024/04/24 03:17:20;;;;;;;0.10;0.10;;;;;;;4.86;77.63;100695.88;6303580;22;20406;-78
2024/04/24 03:19:45;;;;;;;0.00;0.00;;;;;;;4.88;77.51;100688.38;6387096;22;20017;-78
2024/04/24 03:22:13;;;;;;;0.00;0.00;;;;;;;4.96;77.46;100685.38;6302781;22;19998;-79
2024/04/24 03:24:41;;;;;;;0.00;0.00;;;;;;;5.03;77.48;100691.56;6305119;22;20003;-77
2024/04/24 03:27:06;;;;;;;0.00;0.00;;;;;;;5.01;77.56;100687.44;6347512;22;20106;-78
2024/04/24 03:29:34;;;;;;;0.00;0.00;;;;;;;5.02;77.80;100684.50;6385832;22;20022;-78
2024/04/24 03:31:59;;;;;;;0.00;0.00;;;;;;;4.99;77.94;100668.66;6384869;22;19987;-78
2024/04/24 03:34:25;;;;;;;0.10;0.10;;;;;;;5.13;77.89;100679.41;6344007;22;20034;-78
2024/04/24 03:36:50;;;;;;;0.00;0.00;;;;;;;5.19;77.82;100682.03;6347049;22;19998;-79
2024/04/24 03:39:16;;;;;;;0.10;0.10;;;;;;;5.32;77.75;100681.06;6381742;22;20034;-79
2024/04/24 03:41:53;;;;;;;0.00;0.00;;;;;;;5.37;77.40;100681.25;6306677;22;20014;-78
2024/04/24 03:44:18;;;;;;;0.00;0.00;;;;;;;5.06;77.75;100628.78;6342315;22;20882;-78
2024/04/24 03:46:44;;;;;;;0.00;0.00;;;;;;;5.36;77.71;100674.16;6430416;22;20079;-77
2024/04/24 03:49:09;;;;;;;0.00;0.00;;;;;;;5.36;78.07;100668.72;6383478;22;20081;-78
2024/04/24 03:51:34;;;;;;;0.00;0.00;;;;;;;5.46;78.15;100679.06;6303207;22;20013;-77
2024/04/24 03:54:18;;;;;;;0.00;0.00;;;;;;;5.54;78.31;100676.03;6385503;22;20012;-78
2024/04/24 03:56:48;;;;;;;0.00;0.00;;;;;;;5.56;78.03;100668.50;6343938;22;20010;-76
2024/04/24 03:59:16;;;;;;;0.00;0.00;;;;;;;5.70;77.88;100665.63;6307969;22;19998;-76
2024/04/24 04:01:41;;;;;;;0.00;0.00;;;;;;;5.80;77.72;100667.78;6342663;22;20034;-78
2024/04/24 04:04:06;;;;;;;0.00;0.00;;;;;;;5.88;77.62;100659.34;6386397;22;20003;-78
2024/04/24 04:06:32;;;;;;;0.00;0.00;;;;;;;5.93;77.14;100651.34;6387587;22;20005;-77
2024/04/24 04:08:57;;;;;;;0.00;0.00;;;;;;;5.94;77.03;100653.84;6386682;22;20002;-77
2024/04/24 04:11:23;;;;;;;0.00;0.00;;;;;;;5.95;77.00;100657.38;6388272;22;20002;-77
2024/04/24 04:13:48;;;;;;;0.00;0.00;;;;;;;5.86;77.25;100656.84;6345194;22;20002;-77
2024/04/24 04:16:21;;;;;;;0.00;0.00;;;;;;;5.84;77.37;100650.00;6388504;22;20002;-78
2024/04/24 04:18:49;;;;;;;0.00;0.00;;;;;;;5.69;77.47;100626.78;6307691;22;20017;-77
2024/04/24 04:21:14;;;;;;;0.00;0.00;;;;;;;5.87;77.84;100649.53;6386374;22;20026;-78
2024/04/24 04:23:40;;;;;;;0.00;0.00;;;;;;;5.83;77.46;100635.59;6427738;22;20009;-78
2024/04/24 04:26:07;;;;;;;0.00;0.00;;;;;;;5.92;77.59;100644.25;6383993;22;19998;-78
2024/04/24 04:28:35;;;;;;;0.00;0.00;;;;;;;5.85;77.86;100629.94;6389157;22;19995;-78
2024/04/24 04:31:01;;;;;;;0.00;0.00;;;;;;;5.84;77.49;100625.56;6384658;22;19998;-77
2024/04/24 04:33:26;;;;;;;0.00;0.00;;;;;;;5.87;77.63;100631.38;6383204;22;20013;-78
2024/04/24 04:35:59;;;;;;;0.00;0.00;;;;;;;5.77;77.50;100610.22;6344872;22;20002;-77
2024/04/24 04:38:25;;;;;;;0.10;0.10;;;;;;;5.67;77.76;100604.50;6343829;22;20070;-79
2024/04/24 04:40:50;;;;;;;0.00;0.00;;;;;;;5.67;77.92;100615.34;6382772;22;19998;-79
2024/04/24 04:43:47;;;;;;;0.00;0.00;;;;;;;5.51;78.54;100616.00;6383101;22;20363;-78
2024/04/24 04:46:18;;;;;;;0.10;0.10;;;;;;;5.28;79.31;100595.78;6424680;22;20057;-78
2024/04/24 04:48:46;;;;;;;0.00;0.00;;;;;;;5.25;79.61;100601.69;6380831;22;19998;-78
2024/04/24 04:51:20;;;;;;;0.00;0.00;;;;;;;5.27;79.73;100610.44;6425896;22;20041;-78
2024/04/24 04:53:57;;;;;;;;;;;;;;;;;;;;;
2024/04/24 04:56:46;;;;;;;0.00;0.00;;;;;;;5.07;80.64;100611.47;6385963;22;19998;-78
2024/04/24 04:59:15;;;;;;;0.00;0.00;;;;;;;4.97;81.10;100594.06;6391173;22;20443;-77
2024/04/24 05:01:41;;;;;;;0.00;0.00;;;;;;;4.95;81.11;100593.44;6304025;22;20010;-77
2024/04/24 05:04:16;;;;;;;;;;;;;;;;;;;;;
2024/04/24 05:06:49;;;;;;;0.00;0.00;;;;;;;4.86;81.13;100576.66;6424453;22;20002;-78
2024/04/24 05:09:14;;;;;;;0.00;0.00;;;;;;;4.83;81.05;100571.69;6382938;22;20002;-77
2024/04/24 05:11:45;;;;;;;0.00;0.00;;;;;;;4.98;80.86;100593.84;6388596;22;20014;-76
2024/04/24 05:14:12;;;;;;;0.00;0.00;;;;;;;5.19;80.50;100610.72;6346552;22;19994;-77
2024/04/24 05:16:37;;;;;;;0.00;0.00;;;;;;;5.19;80.28;100603.41;6340392;22;20002;-77
2024/04/24 05:19:11;;;;;;;0.10;0.10;;;;;;;5.15;80.45;100602.19;6428572;22;19994;-76
2024/04/24 05:21:37;;;;;;;;;;;;;;;5.28;80.11;100612.06;6383363;22;20409;-76
2024/04/24 05:24:02;;;;;;;0.00;0.00;;;;;;;5.25;80.11;100612.53;6424482;22;19935;-78
2024/04/24 05:29:42;;;;;;;;;;;;;;;;;;;;;
2024/04/24 05:32:20;;;;;;;;;;;;;;;;;;;;;
2024/04/24 05:34:58;;;;;;;0.00;0.00;;;;;;;5.30;79.50;100588.28;6423481;22;20198;-79
2024/04/24 05:37:24;;;;;;;0.00;0.00;;;;;;;5.45;79.39;100596.03;6430181;22;20017;-77
2024/04/24 05:39:51;;;;;;;0.00;0.00;;;;;;;5.56;79.59;100600.69;6383802;22;19995;-76
2024/04/24 05:42:17;;;;;;;0.00;0.00;;;;;;;5.48;79.13;100573.03;6383478;22;20786;-76
2024/04/24 05:44:44;;;;;;;0.00;0.00;;;;;;;5.41;79.19;100552.25;6424799;22;20013;-76
2024/04/24 05:47:12;;;;;;;0.00;0.00;;;;;;;5.58;78.81;100578.75;6380986;22;20090;-78
2024/04/24 05:49:37;;;;;;;0.00;0.00;;;;;;;5.63;78.81;100570.75;6303070;22;19999;-77
2024/04/24 05:52:03;;;;;;;0.00;0.00;;;;;;;5.54;78.69;100569.41;6344479;22;20073;-76
2024/04/24 05:54:29;;;;;;;0.00;0.00;;;;;;;5.61;78.61;100583.72;6346073;22;20017;-76
2024/04/24 05:56:54;;;;;;;0.00;0.00;;;;;;;5.65;78.62;100582.22;6431822;22;19999;-77
2024/04/24 05:59:20;;;;;;;0.00;0.00;;;;;;;5.63;78.69;100569.91;6383071;22;19998;-77
2024/04/24 06:01:54;;;;;;;0.00;0.00;;;;;;;5.62;78.16;100560.94;6384333;22;20007;-76
2024/04/24 06:04:19;;;;;;;;;;;;;;;5.78;78.09;100578.47;6385091;22;19999;-77
2024/04/24 06:06:45;;;;;;;0.00;0.00;;;;;;;5.78;78.16;100573.03;6383870;22;19923;-77
2024/04/24 06:09:10;;;;;;;0.00;0.00;;;;;;;5.83;78.28;100575.06;6431479;22;19998;-74
2024/04/24 06:12:00;;;;;;;0.00;0.00;;;;;;;5.87;77.93;100565.38;6385389;22;19998;-77
2024/04/24 06:14:25;;;;;;;0.00;0.00;;;;;;;5.78;78.02;100537.75;6430467;22;20009;-78
2024/04/24 06:16:50;;;;;;;0.00;0.00;;;;;;;5.75;77.66;100528.22;6303089;22;19998;-74
2024/04/24 06:19:15;;;;;;;0.00;0.00;;;;;;;5.89;77.74;100536.97;6387001;22;20014;-77
2024/04/24 06:21:41;;;;;;;0.10;0.10;;;;;;;5.99;77.71;100543.75;6390609;22;20009;-77
2024/04/24 06:24:19;;;;;;;;;;;;;;;;;;;;;
2024/04/24 06:26:45;;;;;;;0.00;0.00;;;;;;;6.14;77.62;100565.03;6429813;22;20018;-74
2024/04/24 06:29:12;;;;;;;0.10;0.10;;;;;;;6.09;77.51;100547.56;6383202;22;19999;-76
2024/04/24 06:31:38;;;;;;;0.00;0.00;;;;;;;6.10;77.17;100537.50;6386405;22;20046;-77
2024/04/24 06:55:07;;;;;;;0.03;0.03;;;;;;;6.69;76.95;100540.28;6417607;22;20098;-76
2024/04/24 06:57:32;;;;;;;0.00;0.00;;;;;;;6.70;77.34;100530.22;6342930;22;20002;-75
2024/04/24 06:59:58;;;;;;;0.00;0.00;;;;;;;6.87;77.08;100530.31;6381417;22;19994;-75
2024/04/24 07:02:28;;;;;;;0.00;0.00;;;;;;;6.78;76.69;100511.66;6426719;22;19995;-75
2024/04/24 07:04:53;;;;;;;0.00;0.00;;;;;;;6.86;76.43;100534.91;6379975;22;19986;-74
2024/04/24 07:07:48;;;;;;;0.00;0.00;;;;;;;7.00;77.03;100562.69;6383880;22;19998;-75
2024/04/24 07:10:40;;;;;;;0.00;0.00;;;;;;;6.75;77.22;100525.72;6379668;22;19994;-75
2024/04/24 07:13:49;;;;;;;0.00;0.00;;;;;;;6.95;77.91;100557.97;6379925;22;20095;-74
2024/04/24 07:16:03;;;;;;;0.00;0.00;;;;;;;6.91;77.60;100542.38;6398003;22;20304;-75
2024/04/24 07:18:29;;;;;;;0.00;0.00;;;;;;;6.71;77.82;100510.94;6376022;22;19999;-75
2024/04/24 07:27:32;;;;;;;;;;;;;;;;;;;;;
2024/04/24 07:33:16;;;;;;;0.00;0.00;;;;;;;7.54;76.99;100540.66;6346466;22;19994;-74
2024/04/24 07:36:01;;;;;;;0.00;0.00;;;;;;;7.73;76.76;100549.44;6376938;22;20002;-74
2024/04/24 07:38:37;;;;;;;;;;;;;;;;;;;;;
2024/04/24 07:41:07;;;;;;;0.00;0.00;;;;;;;7.89;75.72;100530.69;6416224;22;19991;-74
2024/04/24 07:43:33;;;;;;;0.00;0.00;;;;;;;8.07;75.05;100559.56;6383098;22;20050;-73
2024/04/24 07:46:03;;;;;;;0.00;0.00;;;;;;;8.02;75.14;100546.69;6378302;22;20793;-74
2024/04/24 07:48:28;;;;;;;0.00;0.00;;;;;;;8.11;75.18;100545.22;6342823;22;20707;-74
2024/04/24 07:50:56;;;;;;;0.00;0.00;;;;;;;8.29;75.28;100540.59;6380158;22;20003;-75
2024/04/24 07:53:47;;;;;;;0.00;0.00;;;;;;;8.84;74.98;100563.53;6381920;22;20006;-75
2024/04/24 07:56:41;;;;;;;0.00;0.00;;;;;;;9.06;74.02;100534.38;6344655;22;20914;-74
2024/04/24 07:59:20;;;;;;;;;;;;;;;;;;;;;
2024/04/24 08:02:54;;;;;;;;;;;;;;;;;;;;;
2024/04/24 08:13:46;;;;;;;;;;;;;;;;;;;;;
2024/04/24 08:24:40;;;;;;;;;;;;;;;;;;;;;
2024/04/24 08:30:14;;;;;;;0.00;0.00;;;;;;;11.36;67.34;100557.63;6225532;23;20001;-75
2024/04/24 08:33:06;;;;;;;0.00;0.00;;;;;;;11.45;67.71;100566.16;6223798;22;20001;-74
2024/04/24 08:35:59;;;;;;;0.00;0.00;;;;;;;11.37;67.72;100525.59;6321707;22;19995;-73
2024/04/24 08:38:24;;;;;;;0.00;0.00;;;;;;;11.84;67.46;100568.44;6423410;22;19995;-75
2024/04/24 08:40:50;;;;;;;0.00;0.00;;;;;;;12.08;66.91;100573.47;6420808;22;20013;-74
2024/04/24 08:43:16;;;;;;;0.00;0.00;;;;;;;12.10;66.06;100554.81;6380049;22;20002;-73
2024/04/24 08:45:42;;;;;;;0.00;0.00;;;;;;;12.09;65.61;100536.72;6424397;22;20050;-74
2024/04/24 08:51:58;;;;;;;0.00;0.00;;;;;;;13.72;63.38;100545.63;6271020;22;20001;-75
2024/04/24 08:54:43;;;;;;;0.00;0.00;;;;;;;14.58;61.26;100520.47;6268403;22;19997;-73
2024/04/24 08:57:26;;;;;;;0.00;0.00;;;;;;;15.36;57.82;100509.38;6377747;22;20298;-74
2024/04/24 09:00:04;;;;;;;0.00;0.00;;;;;;;16.55;55.51;100558.06;6379519;22;20003;-74
2024/04/24 09:02:53;;;;;;;0.00;0.00;;;;;;;16.82;53.50;100535.22;6422571;22;20076;-74
2024/04/24 09:06:10;;;;;;;0.00;0.00;;;;;;;16.97;52.23;100561.75;6381203;22;20049;-75
2024/04/24 09:09:04;;;;;;;;;;;;;;;;;;;;;
2024/04/24 09:15:07;;;;;;;0.00;0.00;;;;;;;17.44;51.05;100525.72;6339450;22;20386;-75
2024/04/24 09:18:27;;;;;;;0.00;0.00;;;;;;;18.18;49.62;100507.97;6378942;22;20009;-75
2024/04/24 09:20:59;;;;;;;;;;;;;;;;;;;;;
2024/04/24 09:23:30;;;;;;;0.00;0.00;;;;;;;19.27;46.34;100495.59;6421308;22;20010;-75
2024/04/24 09:25:57;;;;;;;0.00;0.00;;;;;;;19.59;45.96;100546.22;6382473;22;20010;-75
2024/04/24 09:28:25;;;;;;;0.00;0.00;;;;;;;19.71;45.56;100502.00;6380934;22;19998;-75
2024/04/24 09:31:03;;;;;;;;;;;;;;;;;;;;;
2024/04/24 09:33:31;;;;;;;0.00;0.00;;;;;;;20.00;43.69;100550.50;6436774;22;20006;-74
2024/04/24 09:36:02;;;;;;;0.00;0.00;;;;;;;20.63;42.89;100536.19;6390649;22;20002;-75
2024/04/24 09:38:30;;;;;;;0.00;0.00;;;;;;;20.82;41.84;100524.75;6427431;22;20010;-75
2024/04/24 09:41:00;;;;;;;0.00;0.00;;;;;;;20.55;40.84;100542.59;6379931;22;20315;-75
2024/04/24 09:43:27;;;;;;;0.00;0.00;;;;;;;19.88;40.70;100544.78;6425256;22;20548;-76
2024/04/24 09:45:54;;;;;;;0.00;0.00;;;;;;;19.73;41.12;100534.13;6375401;22;20378;-75
2024/04/24 09:48:24;;;;;;;0.00;0.00;;;;;;;19.51;40.23;100533.97;6381375;22;20329;-74
2024/04/24 09:51:15;;;;;;;0.00;0.00;;;;;;;19.21;40.66;100519.06;6378407;22;20264;-74
2024/04/24 09:53:52;;;;;;;0.00;0.00;;;;;;;19.33;41.17;100527.56;6346699;22;20013;-74
2024/04/24 09:56:36;;;;;;;0.00;0.00;;;;;;;19.21;40.79;100530.16;6339248;22;20006;-75
2024/04/24 09:59:05;;;;;;;0.00;0.00;;;;;;;19.13;40.63;100522.63;6379912;22;20002;-75
2024/04/24 10:01:32;;;;;;;0.00;0.00;;;;;;;19.44;40.63;100527.28;6378133;22;20005;-74
2024/04/24 10:04:02;;;;;;;0.00;0.00;;;;;;;19.57;40.12;100520.75;6380197;22;20076;-75
2024/04/24 10:06:43;;;;;;;;;;;;;;;;;;;;;
2024/04/24 10:09:12;;;;;;;0.00;0.00;;;;;;;20.93;38.05;100537.09;6385554;22;20009;-75
2024/04/24 10:12:01;;;;;;;;;;;;;;;;;;;;;
2024/04/24 10:14:27;;;;;;;0.00;0.00;;;;;;;23.46;34.47;100508.03;6425806;22;20337;-76
2024/04/24 10:16:55;;;;;;;0.00;0.00;;;;;;;25.59;32.89;100519.28;6377412;22;20002;-74
2024/04/24 10:19:21;;;;;;;0.00;0.00;;;;;;;27.17;29.81;100510.22;6339171;22;20007;-75
2024/04/24 10:21:58;;;;;;;0.00;0.00;;;;;;;28.67;28.44;100516.16;6377822;22;20073;-74
2024/04/24 10:24:27;;;;;;;0.00;0.00;;;;;;;29.55;25.79;100515.59;6425069;22;20475;-74
2024/04/24 10:26:58;;;;;;;0.00;0.00;;;;;;;28.78;26.16;100498.56;6373377;22;20013;-74
2024/04/24 10:29:27;;;;;;;0.00;0.00;;;;;;;28.15;26.87;100515.19;6382290;22;20002;-74
2024/04/24 10:31:54;;;;;;;0.00;0.00;;;;;;;26.94;26.94;100502.69;6338338;22;20261;-76
2024/04/24 10:34:21;;;;;;;0.00;0.00;;;;;;;25.37;27.72;100518.78;6424407;22;20047;-75
2024/04/24 10:39:46;;;;;;;0.00;0.00;;;;;;;23.07;29.95;100485.28;6391332;22;20073;-75
2024/04/24 10:42:12;;;;;;;0.00;0.00;;;;;;;22.70;30.92;100478.88;6378180;22;20054;-75
2024/04/24 10:44:40;;;;;;;0.00;0.00;;;;;;;23.31;31.14;100483.66;6426613;22;20441;-75
2024/04/24 10:47:08;;;;;;;0.00;0.00;;;;;;;25.14;30.46;100476.66;6382180;22;19998;-74
2024/04/24 10:49:34;;;;;;;0.00;0.00;;;;;;;29.22;26.36;100503.38;6377276;22;20018;-75
2024/04/24 10:52:02;;;;;;;0.00;0.00;;;;;;;29.58;25.29;100492.28;6382074;22;19999;-74
2024/04/24 10:54:30;;;;;;;0.00;0.00;;;;;;;32.29;23.20;100487.38;6377886;22;20009;-73
2024/04/24 10:57:06;;;;;;;;;;;;;;;;;;;;;
2024/04/24 10:59:33;;;;;;;0.00;0.00;;;;;;;40.28;16.80;100484.50;6378625;22;20013;-74
2024/04/24 11:02:16;;;;;;;0.00;0.00;;;;;;;42.27;15.65;100453.56;6425302;22;20006;-75
2024/04/24 11:04:43;;;;;;;0.00;0.00;;;;;;;43.43;13.69;100466.47;6377351;22;20010;-75
2024/04/24 11:07:09;;;;;;;0.00;0.00;;;;;;;44.57;13.25;100469.88;6427305;22;20042;-75
2024/04/24 11:09:38;;;;;;;0.00;0.00;;;;;;;45.48;13.02;100445.03;6379912;22;20355;-75
2024/04/24 11:12:07;;;;;;;0.00;0.00;;;;;;;45.90;11.21;100458.00;6427461;22;20034;-74
2024/04/24 11:14:59;;;;;;;0.00;0.00;;;;;;;46.31;11.43;100428.84;6424511;22;20045;-74
2024/04/24 11:17:30;;;;;;;0.00;0.00;;;;;;;41.73;12.69;100436.81;6332997;22;20010;-75
2024/04/24 11:20:19;;;;;;;0.00;0.00;;;;;;;41.61;14.05;100418.53;6421320;22;20038;-75
2024/04/24 11:23:11;;;;;;;0.00;0.00;;;;;;;42.99;11.20;100412.50;6382422;22;19998;-75
2024/04/24 11:25:55;;;;;;;0.00;0.00;;;;;;;40.97;12.48;100399.34;6377964;22;20295;-75
2024/04/24 11:28:25;;;;;;;0.00;0.00;;;;;;;38.82;13.92;100403.78;6382838;22;20410;-74
2024/04/24 11:31:01;;;;;;;;;;;;;;;;;;;;;
2024/04/24 11:33:29;;;;;;;0.00;0.00;;;;;;;36.81;14.87;100422.94;6422809;22;19998;-75
2024/04/24 11:35:58;;;;;;;0.00;0.00;;;;;;;39.01;15.27;100399.78;6423270;22;20017;-73
2024/04/24 11:38:29;;;;;;;0.00;0.00;;;;;;;39.94;14.39;100428.97;6344015;22;20002;-74
2024/04/24 11:40:55;;;;;;;0.00;0.00;;;;;;;39.34;13.35;100376.56;6380597;22;19995;-75
2024/04/24 11:43:20;;;;;;;0.00;0.00;;;;;;;38.98;13.13;100406.44;6425445;22;20014;-76
2024/04/24 11:45:46;;;;;;;0.00;0.00;;;;;;;37.23;14.49;100407.97;6376028;22;20002;-75
2024/04/24 11:48:25;;;;;;;0.00;0.00;;;;;;;33.95;15.76;100387.31;6424284;22;19998;-74
2024/04/24 11:50:56;;;;;;;0.00;0.00;;;;;;;30.30;17.61;100360.03;6423761;22;20711;-74
2024/04/24 11:53:30;;;;;;;0.00;0.00;;;;;;;28.62;19.48;100391.94;6382351;22;19999;-75
2024/04/24 11:55:57;;;;;;;0.00;0.00;;;;;;;26.44;21.25;100370.03;6380127;22;20877;-77
2024/04/24 11:58:30;;;;;;;0.00;0.00;;;;;;;24.95;22.58;100389.91;6380031;22;20758;-76
2024/04/24 12:00:55;;;;;;;0.00;0.00;;;;;;;28.02;22.33;100383.38;6421665;22;20013;-75
2024/04/24 12:03:33;;;;;;;;;;;;;;;;;;;;;
2024/04/24 12:06:12;;;;;;;;;;;;;;;;;;;;;
2024/04/24 12:08:42;;;;;;;0.00;0.00;;;;;;;28.29;19.70;100359.94;6426140;22;20003;-75
2024/04/24 12:11:11;;;;;;;0.00;0.00;;;;;;;26.86;21.72;100385.91;6342719;22;19987;-75
2024/04/24 12:13:41;;;;;;;0.00;0.00;;;;;;;29.07;20.42;100385.00;6376993;22;19994;-74
2024/04/24 12:16:37;;;;;;;0.00;0.00;;;;;;;28.13;20.40;100358.19;6342425;22;20026;-73
2024/04/24 12:19:05;;;;;;;0.00;0.00;;;;;;;26.24;21.50;100358.06;6382301;22;19998;-72
2024/04/24 12:21:41;;;;;;;0.00;0.00;;;;;;;24.76;22.93;100338.34;6379976;22;19998;-73
2024/04/24 12:24:07;;;;;;;0.00;0.00;;;;;;;23.47;23.90;100336.66;6382646;22;20014;-74
2024/04/24 12:26:32;;;;;;;0.00;0.00;;;;;;;22.28;25.19;100373.97;6382131;22;19994;-74
2024/04/24 12:36:51;;;;;;;;;;;;;;;;;;;;;
2024/04/24 12:54:06;;;;;;;0.00;0.00;;;;;;;28.90;19.40;100329.44;6361418;22;20017;-73
2024/04/24 12:56:32;;;;;;;0.00;0.00;;;;;;;27.32;20.52;100312.75;6297535;22;20074;-73
2024/04/24 12:58:58;;;;;;;0.00;0.00;;;;;;;27.22;21.46;100321.03;6424485;22;20011;-74
2024/04/24 13:01:26;;;;;;;0.00;0.00;;;;;;;28.89;20.14;100325.00;6419308;22;20035;-74
2024/04/24 13:03:54;;;;;;;0.00;0.00;;;;;;;33.74;17.00;100329.69;6381505;22;20010;-73
2024/04/24 13:06:21;;;;;;;0.00;0.00;;;;;;;35.57;15.66;100333.22;6377446;22;20014;-73
2024/04/24 13:08:47;;;;;;;0.00;0.00;;;;;;;33.53;15.74;100332.84;6426499;22;20010;-74
2024/04/24 13:11:12;;;;;;;0.00;0.00;;;;;;;31.19;17.23;100300.97;6381287;22;20008;-74
2024/04/24 13:14:21;;;;;;;0.00;0.00;;;;;;;28.83;17.96;100337.81;6333509;22;20027;-73
2024/04/24 13:16:48;;;;;;;0.00;0.00;;;;;;;25.99;20.19;100281.97;6388905;22;20382;-73
2024/04/24 13:20:27;;;;;;;;;;;;;;;;;;;;;
2024/04/24 13:24:01;;;;;;;;;;;;;;;;;;;;;
2024/04/24 13:26:32;;;;;;;0.00;0.00;;;;;;;20.01;27.11;100284.91;6178048;23;19998;-74
2024/04/24 13:28:57;;;;;;;0.00;0.00;;;;;;;19.29;28.35;100315.06;6273945;22;19994;-74
2024/04/24 13:31:35;;;;;;;;;;;;;;;;;;;;;
2024/04/24 13:34:01;;;;;;;0.00;0.00;;;;;;;18.16;30.75;100293.56;6422899;22;20010;-77
2024/04/24 13:36:44;;;;;;;0.00;0.00;;;;;;;18.38;31.57;100303.72;6343758;22;19991;-76
2024/04/24 13:39:22;;;;;;;0.00;0.00;;;;;;;19.54;30.69;100305.09;6378020;22;19999;-75
2024/04/24 13:42:08;;;;;;;0.00;0.00;;;;;;;22.24;28.55;100326.53;6386687;22;20366;-74
2024/04/24 13:44:33;;;;;;;0.00;0.00;;;;;;;22.99;26.03;100293.81;6426146;22;19995;-74
2024/04/24 13:46:59;;;;;;;0.00;0.00;;;;;;;22.77;25.62;100304.31;6342202;22;19995;-74
2024/04/24 13:49:25;;;;;;;0.00;0.00;;;;;;;22.31;25.94;100309.22;6300021;22;20390;-74
2024/04/24 13:51:53;;;;;;;0.00;0.00;;;;;;;21.67;26.57;100303.16;6300940;22;20002;-74
2024/04/24 13:54:21;;;;;;;0.00;0.00;;;;;;;21.14;27.24;100265.84;6341452;22;19995;-74
2024/04/24 13:56:47;;;;;;;0.00;0.00;;;;;;;21.20;27.23;100286.72;6422622;22;20002;-74
2024/04/24 13:59:15;;;;;;;0.00;0.00;;;;;;;21.18;28.00;100281.50;6378948;22;20069;-74
2024/04/24 14:01:43;;;;;;;0.00;0.00;;;;;;;21.22;28.01;100287.22;6378194;22;20014;-74